sensor_id;sensor_type;location;lat;lon;timestamp;temperature;humidity
13268;DHT22;6702;47.068;15.458;2023-05-14T00:02:17;13.20;99.90
13268;DHT22;6702;47.068;15.458;2023-05-14T00:05:20;13.20;99.90
13268;DHT22;6702;47.068;15.458;2023-05-14T00:08:23;13.20;99.90
13268;DHT22;6702;47.068;15.458;2023-05-14T00:11:28;13.20;99.90
13268;DHT22;6702;47.068;15.458;2023-05-14T00:14:31;13.20;99.90
13268;DHT22;6702;47.068;15.458;2023-05-14T00:17:35;13.20;99.90
13268;DHT22;6702;47.068;15.458;2023-05-14T00:20:39;13.20;99.90
13268;DHT22;6702;47.068;15.458;2023-05-14T00:23:42;13.20;99.90
13268;DHT22;6702;47.068;15.458;2023-05-14T00:26:47;13.20;99.90
13268;DHT22;6702;47.068;15.458;2023-05-14T00:29:50;13.20;99.90
13268;DHT22;6702;47.068;15.458;2023-05-14T00:32:53;13.20;99.90
13268;DHT22;6702;47.068;15.458;2023-05-14T00:35:57;13.20;99.90
13268;DHT22;6702;47.068;15.458;2023-05-14T00:39:00;13.20;99.90
13268;DHT22;6702;47.068;15.458;2023-05-14T00:42:05;13.10;99.90
13268;DHT22;6702;47.068;15.458;2023-05-14T00:45:09;13.20;99.90
13268;DHT22;6702;47.068;15.458;2023-05-14T00:48:12;13.10;99.90
13268;DHT22;6702;47.068;15.458;2023-05-14T00:51:16;13.10;99.90
13268;DHT22;6702;47.068;15.458;2023-05-14T00:54:19;13.10;99.90
13268;DHT22;6702;47.068;15.458;2023-05-14T00:57:24;13.10;99.90
13268;DHT22;6702;47.068;15.458;2023-05-14T01:00:27;13.10;99.90
13268;DHT22;6702;47.068;15.458;2023-05-14T01:03:31;13.10;99.90
13268;DHT22;6702;47.068;15.458;2023-05-14T01:06:38;13.10;99.90
13268;DHT22;6702;47.068;15.458;2023-05-14T01:09:51;13.10;99.90
13268;DHT22;6702;47.068;15.458;2023-05-14T01:13:03;13.10;99.90
13268;DHT22;6702;47.068;15.458;2023-05-14T01:16:12;13.10;99.90
13268;DHT22;6702;47.068;15.458;2023-05-14T01:19:21;13.00;99.90
13268;DHT22;6702;47.068;15.458;2023-05-14T01:22:26;13.10;99.90
13268;DHT22;6702;47.068;15.458;2023-05-14T01:25:30;13.10;99.90
13268;DHT22;6702;47.068;15.458;2023-05-14T01:28:35;13.10;99.90
13268;DHT22;6702;47.068;15.458;2023-05-14T01:31:43;13.10;99.90
13268;DHT22;6702;47.068;15.458;2023-05-14T01:34:47;13.10;99.90
13268;DHT22;6702;47.068;15.458;2023-05-14T01:37:54;13.10;99.90
13268;DHT22;6702;47.068;15.458;2023-05-14T01:40:59;13.10;99.90
13268;DHT22;6702;47.068;15.458;2023-05-14T01:44:02;13.10;99.90
13268;DHT22;6702;47.068;15.458;2023-05-14T01:47:06;13.10;99.90
13268;DHT22;6702;47.068;15.458;2023-05-14T01:50:09;13.10;99.90
13268;DHT22;6702;47.068;15.458;2023-05-14T01:53:14;13.10;99.90
13268;DHT22;6702;47.068;15.458;2023-05-14T01:56:19;13.00;99.90
13268;DHT22;6702;47.068;15.458;2023-05-14T01:59:23;13.00;99.90
13268;DHT22;6702;47.068;15.458;2023-05-14T02:02:26;13.00;99.90
13268;DHT22;6702;47.068;15.458;2023-05-14T02:05:30;13.00;99.90
13268;DHT22;6702;47.068;15.458;2023-05-14T02:08:34;13.00;99.90
13268;DHT22;6702;47.068;15.458;2023-05-14T02:11:37;13.00;99.90
13268;DHT22;6702;47.068;15.458;2023-05-14T02:14:40;13.00;99.90
13268;DHT22;6702;47.068;15.458;2023-05-14T02:17:44;13.00;99.90
13268;DHT22;6702;47.068;15.458;2023-05-14T02:20:47;13.00;99.90
13268;DHT22;6702;47.068;15.458;2023-05-14T02:23:51;13.00;99.90
13268;DHT22;6702;47.068;15.458;2023-05-14T02:26:55;12.90;99.90
13268;DHT22;6702;47.068;15.458;2023-05-14T02:30:00;12.90;99.90
13268;DHT22;6702;47.068;15.458;2023-05-14T02:33:03;12.90;99.90
13268;DHT22;6702;47.068;15.458;2023-05-14T02:36:07;12.90;99.90
13268;DHT22;6702;47.068;15.458;2023-05-14T02:39:11;12.90;99.90
13268;DHT22;6702;47.068;15.458;2023-05-14T02:42:14;12.90;99.90
13268;DHT22;6702;47.068;15.458;2023-05-14T02:45:18;12.90;99.90
13268;DHT22;6702;47.068;15.458;2023-05-14T02:48:25;12.90;99.90
13268;DHT22;6702;47.068;15.458;2023-05-14T02:51:28;12.90;99.90
13268;DHT22;6702;47.068;15.458;2023-05-14T02:54:33;12.90;99.90
13268;DHT22;6702;47.068;15.458;2023-05-14T02:57:36;12.90;99.90
13268;DHT22;6702;47.068;15.458;2023-05-14T03:00:39;12.90;99.90
13268;DHT22;6702;47.068;15.458;2023-05-14T03:03:42;12.90;99.90
13268;DHT22;6702;47.068;15.458;2023-05-14T03:06:46;12.90;99.90
13268;DHT22;6702;47.068;15.458;2023-05-14T03:09:51;12.90;99.90
13268;DHT22;6702;47.068;15.458;2023-05-14T03:12:54;12.90;99.90
13268;DHT22;6702;47.068;15.458;2023-05-14T03:15:57;12.80;99.90
13268;DHT22;6702;47.068;15.458;2023-05-14T03:19:00;12.80;99.90
13268;DHT22;6702;47.068;15.458;2023-05-14T03:22:04;12.80;99.90
13268;DHT22;6702;47.068;15.458;2023-05-14T03:25:09;12.70;99.90
13268;DHT22;6702;47.068;15.458;2023-05-14T03:28:12;12.80;99.90
13268;DHT22;6702;47.068;15.458;2023-05-14T03:31:15;12.80;99.90
13268;DHT22;6702;47.068;15.458;2023-05-14T03:34:18;12.80;99.90
13268;DHT22;6702;47.068;15.458;2023-05-14T03:37:22;12.80;99.90
13268;DHT22;6702;47.068;15.458;2023-05-14T03:40:26;12.90;99.90
13268;DHT22;6702;47.068;15.458;2023-05-14T03:43:29;12.90;99.90
13268;DHT22;6702;47.068;15.458;2023-05-14T03:46:32;12.90;99.90
13268;DHT22;6702;47.068;15.458;2023-05-14T03:49:35;12.90;99.90
13268;DHT22;6702;47.068;15.458;2023-05-14T03:52:38;12.90;99.90
13268;DHT22;6702;47.068;15.458;2023-05-14T03:55:43;12.90;99.90
13268;DHT22;6702;47.068;15.458;2023-05-14T03:58:46;13.00;99.90
13268;DHT22;6702;47.068;15.458;2023-05-14T04:01:49;13.00;99.90
13268;DHT22;6702;47.068;15.458;2023-05-14T04:04:52;13.00;99.90
13268;DHT22;6702;47.068;15.458;2023-05-14T04:07:56;13.00;99.90
13268;DHT22;6702;47.068;15.458;2023-05-14T04:11:01;13.00;99.90
13268;DHT22;6702;47.068;15.458;2023-05-14T04:14:04;13.00;99.90
13268;DHT22;6702;47.068;15.458;2023-05-14T04:17:07;13.00;99.90
13268;DHT22;6702;47.068;15.458;2023-05-14T04:20:10;13.00;99.90
13268;DHT22;6702;47.068;15.458;2023-05-14T04:23:14;13.10;99.90
13268;DHT22;6702;47.068;15.458;2023-05-14T04:26:18;13.10;99.90
13268;DHT22;6702;47.068;15.458;2023-05-14T04:29:22;13.10;99.90
13268;DHT22;6702;47.068;15.458;2023-05-14T04:32:25;13.10;99.90
13268;DHT22;6702;47.068;15.458;2023-05-14T04:35:28;13.10;99.90
13268;DHT22;6702;47.068;15.458;2023-05-14T04:38:31;13.10;99.90
13268;DHT22;6702;47.068;15.458;2023-05-14T04:41:36;13.10;99.90
13268;DHT22;6702;47.068;15.458;2023-05-14T04:44:39;13.20;99.90
13268;DHT22;6702;47.068;15.458;2023-05-14T04:47:42;13.20;99.90
13268;DHT22;6702;47.068;15.458;2023-05-14T04:50:45;13.20;99.90
13268;DHT22;6702;47.068;15.458;2023-05-14T04:53:48;13.20;99.90
13268;DHT22;6702;47.068;15.458;2023-05-14T04:56:53;13.10;99.90
13268;DHT22;6702;47.068;15.458;2023-05-14T04:59:57;13.10;99.90
13268;DHT22;6702;47.068;15.458;2023-05-14T05:03:00;13.20;99.90
13268;DHT22;6702;47.068;15.458;2023-05-14T05:06:03;13.20;99.90
13268;DHT22;6702;47.068;15.458;2023-05-14T05:09:06;13.10;99.90
13268;DHT22;6702;47.068;15.458;2023-05-14T05:12:12;13.10;99.90
13268;DHT22;6702;47.068;15.458;2023-05-14T05:15:15;13.10;99.90
13268;DHT22;6702;47.068;15.458;2023-05-14T05:18:18;13.10;99.90
13268;DHT22;6702;47.068;15.458;2023-05-14T05:21:21;13.10;99.90
13268;DHT22;6702;47.068;15.458;2023-05-14T05:24:24;13.10;99.90
13268;DHT22;6702;47.068;15.458;2023-05-14T05:27:29;13.10;99.90
13268;DHT22;6702;47.068;15.458;2023-05-14T05:30:32;13.10;99.90
13268;DHT22;6702;47.068;15.458;2023-05-14T05:33:35;13.10;99.90
13268;DHT22;6702;47.068;15.458;2023-05-14T05:36:38;13.10;99.90
13268;DHT22;6702;47.068;15.458;2023-05-14T05:39:41;13.20;99.90
13268;DHT22;6702;47.068;15.458;2023-05-14T05:42:46;13.20;99.90
13268;DHT22;6702;47.068;15.458;2023-05-14T05:45:49;13.20;99.90
13268;DHT22;6702;47.068;15.458;2023-05-14T05:48:52;13.20;99.90
13268;DHT22;6702;47.068;15.458;2023-05-14T05:51:55;13.30;99.90
13268;DHT22;6702;47.068;15.458;2023-05-14T05:54:58;13.30;99.90
13268;DHT22;6702;47.068;15.458;2023-05-14T05:58:03;13.30;99.90
13268;DHT22;6702;47.068;15.458;2023-05-14T06:01:06;13.30;99.90
13268;DHT22;6702;47.068;15.458;2023-05-14T06:04:09;13.30;99.90
13268;DHT22;6702;47.068;15.458;2023-05-14T06:07:12;13.30;99.90
13268;DHT22;6702;47.068;15.458;2023-05-14T06:10:15;13.30;99.90
13268;DHT22;6702;47.068;15.458;2023-05-14T06:13:20;13.40;99.90
13268;DHT22;6702;47.068;15.458;2023-05-14T06:16:23;13.40;99.90
13268;DHT22;6702;47.068;15.458;2023-05-14T06:19:26;13.40;99.90
13268;DHT22;6702;47.068;15.458;2023-05-14T06:22:30;13.40;99.90
13268;DHT22;6702;47.068;15.458;2023-05-14T06:25:33;13.40;99.90
13268;DHT22;6702;47.068;15.458;2023-05-14T06:28:38;13.40;99.90
13268;DHT22;6702;47.068;15.458;2023-05-14T06:31:41;13.50;99.90
13268;DHT22;6702;47.068;15.458;2023-05-14T06:34:44;13.60;99.90
13268;DHT22;6702;47.068;15.458;2023-05-14T06:37:47;13.60;99.90
13268;DHT22;6702;47.068;15.458;2023-05-14T06:40:50;13.70;99.90
13268;DHT22;6702;47.068;15.458;2023-05-14T06:43:56;13.70;99.90
13268;DHT22;6702;47.068;15.458;2023-05-14T06:46:59;13.70;99.90
13268;DHT22;6702;47.068;15.458;2023-05-14T06:50:02;13.80;99.90
13268;DHT22;6702;47.068;15.458;2023-05-14T06:53:05;13.80;99.90
13268;DHT22;6702;47.068;15.458;2023-05-14T06:56:09;13.80;99.90
13268;DHT22;6702;47.068;15.458;2023-05-14T06:59:13;13.80;99.90
13268;DHT22;6702;47.068;15.458;2023-05-14T07:02:16;13.70;99.90
13268;DHT22;6702;47.068;15.458;2023-05-14T07:05:20;13.80;99.90
13268;DHT22;6702;47.068;15.458;2023-05-14T07:08:23;13.80;99.90
13268;DHT22;6702;47.068;15.458;2023-05-14T07:11:26;13.90;99.90
13268;DHT22;6702;47.068;15.458;2023-05-14T07:14:31;13.80;99.90
13268;DHT22;6702;47.068;15.458;2023-05-14T07:17:34;13.80;99.90
13268;DHT22;6702;47.068;15.458;2023-05-14T07:20:38;13.80;99.90
13268;DHT22;6702;47.068;15.458;2023-05-14T07:23:41;13.80;99.90
13268;DHT22;6702;47.068;15.458;2023-05-14T07:26:44;13.80;99.90
13268;DHT22;6702;47.068;15.458;2023-05-14T07:29:50;13.70;99.90
13268;DHT22;6702;47.068;15.458;2023-05-14T07:32:53;13.70;99.90
13268;DHT22;6702;47.068;15.458;2023-05-14T07:35:56;13.70;99.90
13268;DHT22;6702;47.068;15.458;2023-05-14T07:38:59;13.70;99.90
13268;DHT22;6702;47.068;15.458;2023-05-14T07:42:03;13.70;99.90
13268;DHT22;6702;47.068;15.458;2023-05-14T07:45:09;13.80;99.90
13268;DHT22;6702;47.068;15.458;2023-05-14T07:48:12;13.80;99.90
13268;DHT22;6702;47.068;15.458;2023-05-14T07:51:16;13.80;99.90
13268;DHT22;6702;47.068;15.458;2023-05-14T07:54:19;13.90;99.90
13268;DHT22;6702;47.068;15.458;2023-05-14T07:57:22;13.90;99.90
13268;DHT22;6702;47.068;15.458;2023-05-14T08:00:26;13.90;99.90
13268;DHT22;6702;47.068;15.458;2023-05-14T08:03:30;13.90;99.90
13268;DHT22;6702;47.068;15.458;2023-05-14T08:06:33;14.10;99.90
13268;DHT22;6702;47.068;15.458;2023-05-14T08:09:36;14.10;99.90
13268;DHT22;6702;47.068;15.458;2023-05-14T08:12:39;14.20;99.90
13268;DHT22;6702;47.068;15.458;2023-05-14T08:15:45;14.30;99.90
13268;DHT22;6702;47.068;15.458;2023-05-14T08:18:48;14.30;99.90
13268;DHT22;6702;47.068;15.458;2023-05-14T08:21:51;14.30;99.90
13268;DHT22;6702;47.068;15.458;2023-05-14T08:24:54;14.30;99.90
13268;DHT22;6702;47.068;15.458;2023-05-14T08:27:57;14.20;99.90
13268;DHT22;6702;47.068;15.458;2023-05-14T08:31:02;14.20;99.90
13268;DHT22;6702;47.068;15.458;2023-05-14T08:34:06;14.20;99.90
13268;DHT22;6702;47.068;15.458;2023-05-14T08:37:09;14.20;99.90
13268;DHT22;6702;47.068;15.458;2023-05-14T08:40:12;14.10;99.90
13268;DHT22;6702;47.068;15.458;2023-05-14T08:43:19;14.10;99.90
13268;DHT22;6702;47.068;15.458;2023-05-14T08:46:29;14.20;99.90
13268;DHT22;6702;47.068;15.458;2023-05-14T08:49:38;14.20;99.90
13268;DHT22;6702;47.068;15.458;2023-05-14T08:52:42;14.40;99.90
13268;DHT22;6702;47.068;15.458;2023-05-14T08:55:46;14.50;99.90
13268;DHT22;6702;47.068;15.458;2023-05-14T08:58:51;14.50;99.90
13268;DHT22;6702;47.068;15.458;2023-05-14T09:01:59;14.50;99.90
13268;DHT22;6702;47.068;15.458;2023-05-14T09:05:03;14.50;99.90
13268;DHT22;6702;47.068;15.458;2023-05-14T09:08:08;14.60;99.90
13268;DHT22;6702;47.068;15.458;2023-05-14T09:11:11;14.60;99.90
13268;DHT22;6702;47.068;15.458;2023-05-14T09:14:15;14.70;99.90
13268;DHT22;6702;47.068;15.458;2023-05-14T09:17:19;14.70;99.90
13268;DHT22;6702;47.068;15.458;2023-05-14T09:20:23;14.70;99.90
13268;DHT22;6702;47.068;15.458;2023-05-14T09:23:31;14.60;99.90
13268;DHT22;6702;47.068;15.458;2023-05-14T09:26:34;14.50;99.90
13268;DHT22;6702;47.068;15.458;2023-05-14T09:29:37;14.50;99.90
13268;DHT22;6702;47.068;15.458;2023-05-14T09:32:42;14.40;99.90
13268;DHT22;6702;47.068;15.458;2023-05-14T09:35:46;14.30;99.90
13268;DHT22;6702;47.068;15.458;2023-05-14T09:38:50;14.20;99.90
13268;DHT22;6702;47.068;15.458;2023-05-14T09:41:53;14.10;99.90
13268;DHT22;6702;47.068;15.458;2023-05-14T09:44:57;14.10;99.90
13268;DHT22;6702;47.068;15.458;2023-05-14T09:48:02;14.00;99.90
13268;DHT22;6702;47.068;15.458;2023-05-14T09:51:05;13.90;99.90
13268;DHT22;6702;47.068;15.458;2023-05-14T09:54:09;13.80;99.90
13268;DHT22;6702;47.068;15.458;2023-05-14T09:57:12;13.80;99.90
13268;DHT22;6702;47.068;15.458;2023-05-14T10:00:16;13.90;99.90
13268;DHT22;6702;47.068;15.458;2023-05-14T10:03:23;14.00;99.90
13268;DHT22;6702;47.068;15.458;2023-05-14T10:06:29;14.10;99.90
13268;DHT22;6702;47.068;15.458;2023-05-14T10:09:36;14.20;99.90
13268;DHT22;6702;47.068;15.458;2023-05-14T10:12:45;14.30;99.90
13268;DHT22;6702;47.068;15.458;2023-05-14T10:15:56;14.50;99.90
13268;DHT22;6702;47.068;15.458;2023-05-14T10:19:08;14.80;99.90
13268;DHT22;6702;47.068;15.458;2023-05-14T10:22:11;15.20;99.90
13268;DHT22;6702;47.068;15.458;2023-05-14T10:25:17;15.60;99.90
13268;DHT22;6702;47.068;15.458;2023-05-14T10:28:20;15.80;99.90
13268;DHT22;6702;47.068;15.458;2023-05-14T10:31:44;16.00;99.90
13268;DHT22;6702;47.068;15.458;2023-05-14T10:34:50;16.10;99.90
13268;DHT22;6702;47.068;15.458;2023-05-14T10:37:54;16.10;99.90
13268;DHT22;6702;47.068;15.458;2023-05-14T10:40:59;15.90;99.90
13268;DHT22;6702;47.068;15.458;2023-05-14T10:44:07;15.60;99.90
13268;DHT22;6702;47.068;15.458;2023-05-14T10:47:11;15.50;99.90
13268;DHT22;6702;47.068;15.458;2023-05-14T10:50:16;15.40;99.90
13268;DHT22;6702;47.068;15.458;2023-05-14T10:53:30;15.10;99.90
13268;DHT22;6702;47.068;15.458;2023-05-14T10:56:33;15.10;99.90
13268;DHT22;6702;47.068;15.458;2023-05-14T10:59:41;15.10;99.90
13268;DHT22;6702;47.068;15.458;2023-05-14T11:02:44;15.20;99.90
13268;DHT22;6702;47.068;15.458;2023-05-14T11:05:49;15.20;99.90
13268;DHT22;6702;47.068;15.458;2023-05-14T11:08:53;15.20;99.90
13268;DHT22;6702;47.068;15.458;2023-05-14T11:11:57;15.30;99.90
13268;DHT22;6702;47.068;15.458;2023-05-14T11:15:01;15.40;99.90
13268;DHT22;6702;47.068;15.458;2023-05-14T11:18:05;15.50;99.90
13268;DHT22;6702;47.068;15.458;2023-05-14T11:21:10;15.50;99.90
13268;DHT22;6702;47.068;15.458;2023-05-14T11:24:13;15.50;99.90
13268;DHT22;6702;47.068;15.458;2023-05-14T11:27:17;15.40;99.90
13268;DHT22;6702;47.068;15.458;2023-05-14T11:30:20;15.30;99.90
13268;DHT22;6702;47.068;15.458;2023-05-14T11:33:26;15.20;99.90
13268;DHT22;6702;47.068;15.458;2023-05-14T11:36:31;15.10;99.90
13268;DHT22;6702;47.068;15.458;2023-05-14T11:39:34;14.60;99.90
13268;DHT22;6702;47.068;15.458;2023-05-14T11:42:38;14.60;99.90
13268;DHT22;6702;47.068;15.458;2023-05-14T11:45:41;14.60;99.90
13268;DHT22;6702;47.068;15.458;2023-05-14T11:48:44;14.50;99.90
13268;DHT22;6702;47.068;15.458;2023-05-14T11:51:49;14.60;99.90
13268;DHT22;6702;47.068;15.458;2023-05-14T11:54:53;14.60;99.90
13268;DHT22;6702;47.068;15.458;2023-05-14T11:57:57;14.60;99.90
13268;DHT22;6702;47.068;15.458;2023-05-14T12:01:00;14.50;99.90
13268;DHT22;6702;47.068;15.458;2023-05-14T12:04:04;14.50;99.90
13268;DHT22;6702;47.068;15.458;2023-05-14T12:07:10;14.40;99.90
13268;DHT22;6702;47.068;15.458;2023-05-14T12:10:14;14.50;99.90
13268;DHT22;6702;47.068;15.458;2023-05-14T12:13:17;14.50;99.90
13268;DHT22;6702;47.068;15.458;2023-05-14T12:16:21;14.40;99.90
13268;DHT22;6702;47.068;15.458;2023-05-14T12:19:24;14.30;99.90
13268;DHT22;6702;47.068;15.458;2023-05-14T12:22:29;14.20;99.90
13268;DHT22;6702;47.068;15.458;2023-05-14T12:25:32;14.10;99.90
13268;DHT22;6702;47.068;15.458;2023-05-14T12:28:38;14.10;99.90
13268;DHT22;6702;47.068;15.458;2023-05-14T12:31:45;14.10;99.90
13268;DHT22;6702;47.068;15.458;2023-05-14T12:34:49;14.10;99.90
13268;DHT22;6702;47.068;15.458;2023-05-14T12:37:53;14.10;99.90
13268;DHT22;6702;47.068;15.458;2023-05-14T12:40:56;14.00;99.90
13268;DHT22;6702;47.068;15.458;2023-05-14T12:44:00;14.00;99.90
13268;DHT22;6702;47.068;15.458;2023-05-14T12:47:04;14.00;99.90
13268;DHT22;6702;47.068;15.458;2023-05-14T12:50:08;13.90;99.90
13268;DHT22;6702;47.068;15.458;2023-05-14T12:53:13;13.80;99.90
13268;DHT22;6702;47.068;15.458;2023-05-14T12:56:17;13.70;99.90
13268;DHT22;6702;47.068;15.458;2023-05-14T12:59:20;13.70;99.90
13268;DHT22;6702;47.068;15.458;2023-05-14T13:02:23;13.70;99.90
13268;DHT22;6702;47.068;15.458;2023-05-14T13:05:26;13.70;99.90
13268;DHT22;6702;47.068;15.458;2023-05-14T13:08:31;13.70;99.90
13268;DHT22;6702;47.068;15.458;2023-05-14T13:11:34;13.80;99.90
13268;DHT22;6702;47.068;15.458;2023-05-14T13:14:38;13.90;99.90
13268;DHT22;6702;47.068;15.458;2023-05-14T13:17:41;13.90;99.90
13268;DHT22;6702;47.068;15.458;2023-05-14T13:20:44;13.90;99.90
13268;DHT22;6702;47.068;15.458;2023-05-14T13:23:49;14.00;99.90
13268;DHT22;6702;47.068;15.458;2023-05-14T13:26:52;14.00;99.90
13268;DHT22;6702;47.068;15.458;2023-05-14T13:29:58;13.90;99.90
13268;DHT22;6702;47.068;15.458;2023-05-14T13:33:01;14.00;99.90
13268;DHT22;6702;47.068;15.458;2023-05-14T13:36:05;14.00;99.90
13268;DHT22;6702;47.068;15.458;2023-05-14T13:39:10;14.10;99.90
13268;DHT22;6702;47.068;15.458;2023-05-14T13:42:15;14.10;99.90
13268;DHT22;6702;47.068;15.458;2023-05-14T13:45:18;14.10;99.90
13268;DHT22;6702;47.068;15.458;2023-05-14T13:48:21;14.10;99.90
13268;DHT22;6702;47.068;15.458;2023-05-14T13:51:24;14.20;99.90
13268;DHT22;6702;47.068;15.458;2023-05-14T13:54:29;14.20;99.90
13268;DHT22;6702;47.068;15.458;2023-05-14T13:57:32;14.20;99.90
13268;DHT22;6702;47.068;15.458;2023-05-14T14:00:35;14.20;99.90
13268;DHT22;6702;47.068;15.458;2023-05-14T14:03:38;14.20;99.90
13268;DHT22;6702;47.068;15.458;2023-05-14T14:06:42;14.20;99.90
13268;DHT22;6702;47.068;15.458;2023-05-14T14:09:46;14.10;99.90
13268;DHT22;6702;47.068;15.458;2023-05-14T14:12:52;14.10;99.90
13268;DHT22;6702;47.068;15.458;2023-05-14T14:15:55;14.20;99.90
13268;DHT22;6702;47.068;15.458;2023-05-14T14:18:59;14.10;99.90
13268;DHT22;6702;47.068;15.458;2023-05-14T14:22:02;14.10;99.90
13268;DHT22;6702;47.068;15.458;2023-05-14T14:25:08;14.00;99.90
13268;DHT22;6702;47.068;15.458;2023-05-14T14:28:11;14.00;99.90
13268;DHT22;6702;47.068;15.458;2023-05-14T14:31:15;13.90;99.90
13268;DHT22;6702;47.068;15.458;2023-05-14T14:34:18;13.90;99.90
13268;DHT22;6702;47.068;15.458;2023-05-14T14:37:21;13.90;99.90
13268;DHT22;6702;47.068;15.458;2023-05-14T14:40:26;13.90;99.90
13268;DHT22;6702;47.068;15.458;2023-05-14T14:43:30;13.90;99.90
13268;DHT22;6702;47.068;15.458;2023-05-14T14:46:33;13.90;99.90
13268;DHT22;6702;47.068;15.458;2023-05-14T14:49:37;13.90;99.90
13268;DHT22;6702;47.068;15.458;2023-05-14T14:52:40;13.90;99.90
13268;DHT22;6702;47.068;15.458;2023-05-14T14:55:48;13.90;99.90
13268;DHT22;6702;47.068;15.458;2023-05-14T14:58:52;14.00;99.90
13268;DHT22;6702;47.068;15.458;2023-05-14T15:01:55;14.00;99.90
13268;DHT22;6702;47.068;15.458;2023-05-14T15:04:58;14.10;99.90
13268;DHT22;6702;47.068;15.458;2023-05-14T15:08:01;14.00;99.90
13268;DHT22;6702;47.068;15.458;2023-05-14T15:11:06;14.10;99.90
13268;DHT22;6702;47.068;15.458;2023-05-14T15:14:09;14.00;99.90
13268;DHT22;6702;47.068;15.458;2023-05-14T15:17:13;13.90;99.90
13268;DHT22;6702;47.068;15.458;2023-05-14T15:20:17;13.90;99.90
13268;DHT22;6702;47.068;15.458;2023-05-14T15:23:20;14.00;99.90
13268;DHT22;6702;47.068;15.458;2023-05-14T15:26:24;14.00;99.90
13268;DHT22;6702;47.068;15.458;2023-05-14T15:29:28;14.00;99.90
13268;DHT22;6702;47.068;15.458;2023-05-14T15:32:31;14.00;99.90
13268;DHT22;6702;47.068;15.458;2023-05-14T15:35:34;14.00;99.90
13268;DHT22;6702;47.068;15.458;2023-05-14T15:38:38;14.10;99.90
13268;DHT22;6702;47.068;15.458;2023-05-14T15:41:42;14.10;99.90
13268;DHT22;6702;47.068;15.458;2023-05-14T15:44:46;14.10;99.90
13268;DHT22;6702;47.068;15.458;2023-05-14T15:47:51;14.10;99.90
13268;DHT22;6702;47.068;15.458;2023-05-14T15:50:55;14.10;99.90
13268;DHT22;6702;47.068;15.458;2023-05-14T15:53:58;14.10;99.90
13268;DHT22;6702;47.068;15.458;2023-05-14T15:57:02;14.10;99.90
13268;DHT22;6702;47.068;15.458;2023-05-14T16:00:07;14.10;99.90
13268;DHT22;6702;47.068;15.458;2023-05-14T16:03:11;14.00;99.90
13268;DHT22;6702;47.068;15.458;2023-05-14T16:06:15;14.00;99.90
13268;DHT22;6702;47.068;15.458;2023-05-14T16:09:18;14.00;99.90
13268;DHT22;6702;47.068;15.458;2023-05-14T16:12:22;13.90;99.90
13268;DHT22;6702;47.068;15.458;2023-05-14T16:15:27;13.90;99.90
13268;DHT22;6702;47.068;15.458;2023-05-14T16:18:30;13.90;99.90
13268;DHT22;6702;47.068;15.458;2023-05-14T16:21:33;13.90;99.90
13268;DHT22;6702;47.068;15.458;2023-05-14T16:24:36;13.90;99.90
13268;DHT22;6702;47.068;15.458;2023-05-14T16:27:41;13.90;99.90
13268;DHT22;6702;47.068;15.458;2023-05-14T16:30:44;14.00;99.90
13268;DHT22;6702;47.068;15.458;2023-05-14T16:33:47;14.00;99.90
13268;DHT22;6702;47.068;15.458;2023-05-14T16:36:51;14.00;99.90
13268;DHT22;6702;47.068;15.458;2023-05-14T16:39:54;14.00;99.90
13268;DHT22;6702;47.068;15.458;2023-05-14T16:42:59;14.10;99.90
13268;DHT22;6702;47.068;15.458;2023-05-14T16:46:02;14.10;99.90
13268;DHT22;6702;47.068;15.458;2023-05-14T16:49:06;14.20;99.90
13268;DHT22;6702;47.068;15.458;2023-05-14T16:52:09;14.20;99.90
13268;DHT22;6702;47.068;15.458;2023-05-14T16:55:12;14.30;99.90
13268;DHT22;6702;47.068;15.458;2023-05-14T16:58:17;14.30;99.90
13268;DHT22;6702;47.068;15.458;2023-05-14T17:01:20;14.30;99.90
13268;DHT22;6702;47.068;15.458;2023-05-14T17:04:24;14.30;99.90
13268;DHT22;6702;47.068;15.458;2023-05-14T17:07:27;14.20;99.90
13268;DHT22;6702;47.068;15.458;2023-05-14T17:10:32;14.20;99.90
13268;DHT22;6702;47.068;15.458;2023-05-14T17:13:38;14.10;99.90
13268;DHT22;6702;47.068;15.458;2023-05-14T17:16:41;14.10;99.90
13268;DHT22;6702;47.068;15.458;2023-05-14T17:19:44;14.00;99.90
13268;DHT22;6702;47.068;15.458;2023-05-14T17:22:48;13.90;99.90
13268;DHT22;6702;47.068;15.458;2023-05-14T17:25:51;13.90;99.90
13268;DHT22;6702;47.068;15.458;2023-05-14T17:28:58;13.90;99.90
13268;DHT22;6702;47.068;15.458;2023-05-14T17:32:02;13.90;99.90
13268;DHT22;6702;47.068;15.458;2023-05-14T17:35:06;13.90;99.90
13268;DHT22;6702;47.068;15.458;2023-05-14T17:38:11;13.90;99.90
13268;DHT22;6702;47.068;15.458;2023-05-14T17:41:14;13.80;99.90
13268;DHT22;6702;47.068;15.458;2023-05-14T17:44:19;13.70;99.90
13268;DHT22;6702;47.068;15.458;2023-05-14T17:47:22;13.70;99.90
13268;DHT22;6702;47.068;15.458;2023-05-14T17:50:26;13.70;99.90
13268;DHT22;6702;47.068;15.458;2023-05-14T17:53:29;13.70;99.90
13268;DHT22;6702;47.068;15.458;2023-05-14T17:56:33;13.70;99.90
13268;DHT22;6702;47.068;15.458;2023-05-14T17:59:37;13.70;99.90
13268;DHT22;6702;47.068;15.458;2023-05-14T18:02:40;13.70;99.90
13268;DHT22;6702;47.068;15.458;2023-05-14T18:05:44;13.70;99.90
13268;DHT22;6702;47.068;15.458;2023-05-14T18:08:47;13.70;99.90
13268;DHT22;6702;47.068;15.458;2023-05-14T18:11:50;13.70;99.90
13268;DHT22;6702;47.068;15.458;2023-05-14T18:14:58;13.60;99.90
13268;DHT22;6702;47.068;15.458;2023-05-14T18:18:02;13.60;99.90
13268;DHT22;6702;47.068;15.458;2023-05-14T18:21:05;13.60;99.90
13268;DHT22;6702;47.068;15.458;2023-05-14T18:24:09;13.50;99.90
13268;DHT22;6702;47.068;15.458;2023-05-14T18:27:12;13.50;99.90
13268;DHT22;6702;47.068;15.458;2023-05-14T18:30:17;13.50;99.90
13268;DHT22;6702;47.068;15.458;2023-05-14T18:33:20;13.50;99.90
13268;DHT22;6702;47.068;15.458;2023-05-14T18:36:24;13.50;99.90
13268;DHT22;6702;47.068;15.458;2023-05-14T18:39:28;13.40;99.90
13268;DHT22;6702;47.068;15.458;2023-05-14T18:42:31;13.50;99.90
13268;DHT22;6702;47.068;15.458;2023-05-14T18:45:37;13.40;99.90
13268;DHT22;6702;47.068;15.458;2023-05-14T18:48:41;13.40;99.90
13268;DHT22;6702;47.068;15.458;2023-05-14T18:51:45;13.40;99.90
13268;DHT22;6702;47.068;15.458;2023-05-14T18:54:49;13.30;99.90
13268;DHT22;6702;47.068;15.458;2023-05-14T18:57:54;13.30;99.90
13268;DHT22;6702;47.068;15.458;2023-05-14T19:01:00;13.30;99.90
13268;DHT22;6702;47.068;15.458;2023-05-14T19:04:03;13.30;99.90
13268;DHT22;6702;47.068;15.458;2023-05-14T19:07:08;13.20;99.90
13268;DHT22;6702;47.068;15.458;2023-05-14T19:10:12;13.20;99.90
13268;DHT22;6702;47.068;15.458;2023-05-14T19:13:17;13.20;99.90
13268;DHT22;6702;47.068;15.458;2023-05-14T19:16:22;13.20;99.90
13268;DHT22;6702;47.068;15.458;2023-05-14T19:19:25;13.20;99.90
13268;DHT22;6702;47.068;15.458;2023-05-14T19:22:28;13.20;99.90